Time;durP1;ratioP1;P1;durP2;ratioP2;P2;SDS_P1;SDS_P2;PMS_P1;PMS_P2;Temp;Humidity;BMP_temperature;BMP_pressure;BME280_temperature;BME280_humidity;BME280_pressure;Samples;Min_cycle;Max_cycle;Signal;HPM_P1;HPM_P2
2020/12/24 00:02:18;;;;;;;45.90;24.37;;;;;;;4.57;75.12;96455.84;1797456;79;21168;-80
2020/12/24 00:04:48;;;;;;;50.75;26.82;;;;;;;4.54;74.87;96457.72;1797297;79;21566;-81
2020/12/24 00:07:17;;;;;;;42.27;22.30;;;;;;;4.46;74.94;96457.47;1797661;79;21101;-80
2020/12/24 00:09:48;;;;;;;38.05;21.05;;;;;;;4.45;75.30;96453.21;1798101;79;22131;-81
2020/12/24 00:12:18;;;;;;;52.65;28.70;;;;;;;4.48;75.40;96451.66;1776230;79;21136;-81
2020/12/24 00:15:06;;;;;;;65.85;34.90;;;;;;;4.55;75.47;96453.33;1797395;79;21177;-81
2020/12/24 00:17:36;;;;;;;54.05;30.52;;;;;;;4.59;75.39;96450.03;1797943;79;21132;-81
2020/12/24 00:20:05;;;;;;;39.53;21.48;;;;;;;4.64;75.59;96446.61;1798095;79;21164;-82
2020/12/24 00:22:35;;;;;;;35.33;16.87;;;;;;;4.70;75.35;96449.58;1798960;77;21208;-80
2020/12/24 00:25:11;;;;;;;28.00;15.03;;;;;;;4.75;75.36;96453.16;1798915;79;21061;-83
2020/12/24 00:27:59;;;;;;;43.23;23.73;;;;;;;4.77;75.32;96442.95;1797818;79;21037;-81
2020/12/24 00:30:28;;;;;;;39.20;20.23;;;;;;;4.76;75.13;96439.98;1798249;79;21105;-81
2020/12/24 00:32:57;;;;;;;40.28;21.50;;;;;;;4.79;74.99;96441.52;1796970;79;21049;-80
2020/12/24 00:35:27;;;;;;;38.78;19.50;;;;;;;4.81;74.83;96434.42;1797145;79;21451;-81
2020/12/24 00:37:57;;;;;;;32.10;16.57;;;;;;;4.80;74.61;96429.69;1797883;79;21121;-82
2020/12/24 00:40:28;;;;;;;35.15;17.92;;;;;;;4.79;74.54;96424.09;1798533;79;21101;-81
2020/12/24 00:42:57;;;;;;;27.62;13.65;;;;;;;4.76;74.25;96420.91;1797962;79;21117;-80
2020/12/24 00:45:26;;;;;;;29.75;15.45;;;;;;;4.66;74.40;96413.41;1797451;79;21085;-81
2020/12/24 00:47:55;;;;;;;30.20;15.30;;;;;;;4.54;74.59;96409.48;1797577;79;22145;-82
2020/12/24 00:50:24;;;;;;;29.52;14.98;;;;;;;4.54;74.82;96409.95;1797150;79;21515;-79
2020/12/24 00:52:52;;;;;;;29.82;16.42;;;;;;;4.57;74.81;96407.13;1797418;79;21498;-80
2020/12/24 00:55:21;;;;;;;28.85;15.80;;;;;;;4.58;74.70;96400.14;1797382;79;21054;-80
2020/12/24 00:57:50;;;;;;;32.40;18.40;;;;;;;4.57;74.71;96396.70;1797576;79;21042;-81
2020/12/24 01:00:20;;;;;;;30.68;17.00;;;;;;;4.60;74.73;96397.75;1797774;79;22261;-80
2020/12/24 01:02:48;;;;;;;37.50;23.00;;;;;;;4.62;74.54;96398.46;1797970;79;21547;-81
2020/12/24 01:05:19;;;;;;;36.73;21.68;;;;;;;4.57;74.46;96388.05;1797784;79;21085;-80
2020/12/24 01:07:48;;;;;;;38.25;23.55;;;;;;;4.50;74.66;96385.05;1797787;79;21586;-81
2020/12/24 01:10:16;;;;;;;38.00;23.25;;;;;;;4.49;74.69;96380.31;1797593;79;21128;-81
2020/12/24 01:12:46;;;;;;;36.42;21.02;;;;;;;4.46;74.84;96377.12;1797664;79;21586;-80
2020/12/24 01:15:15;;;;;;;32.78;18.67;;;;;;;4.50;74.95;96369.41;1797360;79;21136;-81
2020/12/24 01:17:44;;;;;;;37.80;19.92;;;;;;;4.53;75.05;96367.89;1797304;79;21045;-80
2020/12/24 01:20:13;;;;;;;36.03;20.88;;;;;;;4.57;75.42;96368.02;1797446;79;21062;-81
2020/12/24 01:22:42;;;;;;;44.20;25.68;;;;;;;4.66;75.35;96371.20;1797950;79;21137;-81
2020/12/24 01:25:11;;;;;;;46.50;25.60;;;;;;;4.72;75.18;96364.22;1798477;79;22183;-80
2020/12/24 01:27:41;;;;;;;41.18;24.65;;;;;;;4.79;75.00;96356.27;1797996;79;21058;-81
2020/12/24 01:30:09;;;;;;;39.45;23.62;;;;;;;4.83;74.93;96357.70;1797599;79;21061;-80
2020/12/24 01:32:39;;;;;;;39.30;22.90;;;;;;;4.77;74.67;96354.27;1797603;79;21112;-80
2020/12/24 01:35:08;;;;;;;35.73;20.92;;;;;;;4.70;74.81;96347.87;1797362;77;21140;-80
2020/12/24 01:37:36;;;;;;;34.83;20.02;;;;;;;4.60;74.84;96345.60;1797495;79;21557;-79
2020/12/24 01:40:07;;;;;;;34.83;20.52;;;;;;;4.53;75.22;96330.91;1797910;79;21093;-80
2020/12/24 01:42:36;;;;;;;31.33;18.00;;;;;;;4.49;75.69;96330.78;1797873;79;21104;-79
2020/12/24 01:45:05;;;;;;;31.10;17.77;;;;;;;4.51;76.01;96326.77;1798021;79;21165;-78
2020/12/24 01:47:35;;;;;;;35.68;20.40;;;;;;;4.56;76.25;96325.92;1797330;79;21036;-80
2020/12/24 01:50:06;;;;;;;38.83;20.40;;;;;;;4.51;76.41;96322.86;1797248;79;22731;-79
2020/12/24 01:52:39;;;;;;;35.98;19.62;;;;;;;4.51;76.93;96315.87;1797015;79;21616;-80
2020/12/24 01:55:10;;;;;;;;;;;;;;;4.62;77.25;96314.19;1800087;79;21644;-80
2020/12/24 01:57:40;;;;;;;48.50;24.90;;;;;;;4.72;77.41;96299.02;1797375;79;20253;-80
2020/12/24 02:00:10;;;;;;;40.17;23.18;;;;;;;4.82;77.63;96296.05;1797180;79;21177;-80
2020/12/24 02:02:42;;;;;;;43.60;23.77;;;;;;;4.99;77.73;96299.11;1797540;79;21358;-79
2020/12/24 02:05:12;;;;;;;36.50;23.15;;;;;;;5.15;77.65;96304.75;1797055;79;21177;-80
2020/12/24 02:07:41;;;;;;;36.98;22.67;;;;;;;5.26;77.05;96295.58;1797308;79;21511;-79
2020/12/24 02:10:10;;;;;;;27.87;18.70;;;;;;;5.33;77.03;96294.61;1797490;79;21471;-80
2020/12/24 02:12:41;;;;;;;29.87;18.32;;;;;;;5.42;76.72;96274.77;1797283;79;21109;-79
2020/12/24 02:15:11;;;;;;;33.30;20.52;;;;;;;5.43;76.81;96275.95;1797606;79;22250;-80
2020/12/24 02:17:39;;;;;;;24.72;16.97;;;;;;;5.47;76.85;96273.92;1797234;79;21041;-80
2020/12/24 02:20:08;;;;;;;23.60;15.28;;;;;;;5.51;76.64;96267.00;1797394;79;21581;-80
2020/12/24 02:22:40;;;;;;;22.62;14.05;;;;;;;5.57;76.65;96261.75;1797698;79;21025;-79
2020/12/24 02:25:10;;;;;;;21.80;13.38;;;;;;;5.66;76.57;96247.95;1797486;79;21806;-80
2020/12/24 02:27:38;;;;;;;23.83;14.65;;;;;;;5.75;76.33;96242.42;1798380;79;22295;-79
2020/12/24 02:30:07;;;;;;;24.57;14.43;;;;;;;5.81;76.04;96232.32;1798428;79;21090;-79
2020/12/24 02:32:36;;;;;;;19.37;11.22;;;;;;;5.85;75.71;96220.63;1801266;79;21101;-77
2020/12/24 02:35:07;;;;;;;23.32;12.65;;;;;;;5.88;75.42;96213.86;1800397;77;21015;-79
2020/12/24 02:37:36;;;;;;;19.87;11.68;;;;;;;5.92;75.44;96217.53;1800881;79;21161;-79
2020/12/24 02:40:04;;;;;;;16.17;8.45;;;;;;;5.96;75.35;96208.48;1799556;79;21876;-80
2020/12/24 02:42:35;;;;;;;15.75;8.90;;;;;;;5.99;75.49;96206.45;1797387;79;21668;-80
2020/12/24 02:45:05;;;;;;;16.62;9.18;;;;;;;6.07;75.35;96199.27;1797551;79;21164;-78
2020/12/24 02:47:38;;;;;;;12.23;7.03;;;;;;;6.15;75.25;96191.58;1797189;79;21038;-79
2020/12/24 02:50:08;;;;;;;9.13;4.17;;;;;;;6.23;75.23;96192.25;1797754;79;21570;-80
2020/12/24 02:52:39;;;;;;;6.37;2.95;;;;;;;6.32;75.21;96197.50;1798824;79;21371;-80
2020/12/24 02:55:08;;;;;;;4.75;2.00;;;;;;;6.43;75.09;96191.34;1797871;79;21125;-80
2020/12/24 02:57:36;;;;;;;5.12;2.25;;;;;;;6.54;75.01;96186.02;1797605;79;21113;-79
2020/12/24 03:00:10;;;;;;;4.80;1.60;;;;;;;6.67;74.88;96170.89;1797175;79;21165;-80
2020/12/24 03:02:39;;;;;;;5.20;2.10;;;;;;;6.78;74.88;96169.95;1797265;79;21117;-79
2020/12/24 03:05:08;;;;;;;3.72;1.50;;;;;;;6.94;74.74;96168.94;1797664;79;21353;-81
2020/12/24 03:07:38;;;;;;;3.90;1.57;;;;;;;7.11;74.31;96172.64;1797536;79;21081;-80
2020/12/24 03:10:07;;;;;;;4.20;1.62;;;;;;;7.23;73.78;96167.64;1797853;79;21546;-80
2020/12/24 03:12:37;;;;;;;3.47;1.50;;;;;;;7.33;73.32;96167.61;1797523;79;21163;-80
2020/12/24 03:15:08;;;;;;;4.05;1.40;;;;;;;7.41;73.12;96174.31;1797233;79;21549;-81
2020/12/24 03:17:38;;;;;;;3.90;1.53;;;;;;;7.49;73.09;96169.19;1797801;79;21586;-82
2020/12/24 03:20:10;;;;;;;4.20;1.90;;;;;;;7.58;72.90;96150.48;1796013;79;21124;-82
2020/12/24 03:22:38;;;;;;;5.92;2.55;;;;;;;;;;1797504;79;21113;-81
2020/12/24 03:25:07;;;;;;;9.28;4.08;;;;;;;7.87;72.17;96146.96;1797341;79;21121;-80
2020/12/24 03:27:36;;;;;;;8.03;2.77;;;;;;;8.01;71.57;96135.54;1797175;79;21105;-80
2020/12/24 03:30:07;;;;;;;10.23;4.70;;;;;;;8.14;71.20;96141.77;1797130;79;21437;-80
2020/12/24 03:32:37;;;;;;;10.68;5.25;;;;;;;8.23;70.86;96132.19;1797524;79;21125;-79
2020/12/24 03:35:05;;;;;;;16.23;6.80;;;;;;;8.30;70.31;96143.73;1802502;79;21625;-79
2020/12/24 03:37:35;;;;;;;10.63;4.03;;;;;;;8.34;69.94;96149.53;1808931;79;21151;-82
2020/12/24 03:40:04;;;;;;;13.13;4.58;;;;;;;8.37;69.81;96138.80;1809768;79;21470;-81
2020/12/24 03:42:35;;;;;;;5.15;1.90;;;;;;;8.39;69.83;96134.22;1809250;79;21421;-81
2020/12/24 03:45:05;;;;;;;4.45;1.70;;;;;;;8.44;69.80;96135.92;1808725;79;21211;-80
2020/12/24 03:47:34;;;;;;;5.00;1.85;;;;;;;8.50;69.74;96132.22;1808798;79;21064;-80
2020/12/24 03:50:03;;;;;;;5.47;1.60;;;;;;;8.59;69.41;96125.73;1808823;79;21052;-82
2020/12/24 03:52:33;;;;;;;2.70;1.32;;;;;;;8.66;69.20;96123.70;1809040;79;21033;-81
2020/12/24 03:55:03;;;;;;;2.17;0.82;;;;;;;8.70;68.78;96126.35;1808719;79;21217;-81
2020/12/24 03:57:35;;;;;;;2.83;1.10;;;;;;;8.75;68.54;96135.92;1808698;79;21057;-82
2020/12/24 04:00:04;;;;;;;5.10;1.27;;;;;;;8.80;68.31;96127.61;1809123;79;21049;-81
2020/12/24 04:02:33;;;;;;;2.33;0.82;;;;;;;8.82;68.09;96129.59;1808982;79;21462;-79
2020/12/24 04:05:02;;;;;;;3.75;1.25;;;;;;;8.83;67.94;96125.52;1808742;79;21031;-81
2020/12/24 04:07:31;;;;;;;3.55;1.45;;;;;;;8.84;67.85;96134.22;1808702;79;21190;-80
2020/12/24 04:09:59;;;;;;;3.47;1.07;;;;;;;8.84;67.89;96125.03;1808657;79;21561;-81
2020/12/24 04:12:28;;;;;;;2.60;0.85;;;;;;;8.88;67.86;96132.10;1808845;79;21076;-81
2020/12/24 04:14:57;;;;;;;3.10;1.17;;;;;;;8.92;67.90;96130.34;1809063;79;21080;-82
2020/12/24 04:17:27;;;;;;;2.83;1.30;;;;;;;8.97;68.04;96123.34;1808603;79;21156;-80
2020/12/24 04:19:56;;;;;;;4.12;1.57;;;;;;;8.96;68.17;96112.02;1809300;79;21186;-81
2020/12/24 04:22:24;;;;;;;2.60;1.17;;;;;;;8.98;68.08;96106.61;1809238;79;21083;-81
2020/12/24 04:24:53;;;;;;;2.90;1.25;;;;;;;9.00;68.15;96109.41;1809075;79;21056;-81
2020/12/24 04:27:23;;;;;;;5.08;2.30;;;;;;;9.01;68.04;96123.36;1808968;79;21005;-81
2020/12/24 04:29:53;;;;;;;3.87;1.00;;;;;;;9.02;68.00;96127.17;1809109;79;21029;-81
2020/12/24 04:32:22;;;;;;;3.47;1.30;;;;;;;9.03;67.93;96130.13;1808963;79;22407;-82
2020/12/24 04:34:51;;;;;;;4.87;1.95;;;;;;;9.04;67.79;96130.95;1808211;79;21095;-81
2020/12/24 04:37:20;;;;;;;5.05;1.98;;;;;;;9.06;67.71;96140.31;1808539;79;21089;-80
2020/12/24 04:39:48;;;;;;;6.22;2.40;;;;;;;9.07;67.65;96131.94;1808529;79;21105;-80
2020/12/24 04:42:18;;;;;;;5.33;2.42;;;;;;;9.11;67.54;96134.62;1808543;79;21176;-80
2020/12/24 04:44:51;;;;;;;7.92;4.17;;;;;;;9.12;67.40;96137.58;1808643;79;21487;-82
2020/12/24 04:47:20;;;;;;;5.80;2.83;;;;;;;9.13;67.40;96146.28;1809343;79;21069;-82
2020/12/24 04:49:49;;;;;;;9.25;4.42;;;;;;;9.18;67.31;96140.91;1808958;79;21124;-81
2020/12/24 04:52:18;;;;;;;6.92;3.00;;;;;;;9.25;67.04;96147.23;1808562;79;21111;-82
2020/12/24 04:54:46;;;;;;;6.20;3.10;;;;;;;9.29;66.94;96152.99;1808589;79;21140;-81
2020/12/24 04:57:15;;;;;;;6.05;3.30;;;;;;;9.27;66.79;96149.70;1808539;79;21394;-80
2020/12/24 04:59:44;;;;;;;5.40;2.60;;;;;;;9.24;66.92;96146.88;1808554;79;21064;-81
2020/12/24 05:02:13;;;;;;;5.83;2.25;;;;;;;9.22;67.03;96141.45;1808776;79;21041;-82
2020/12/24 05:04:45;;;;;;;4.55;2.25;;;;;;;9.18;67.12;96135.66;1808837;79;21180;-81
2020/12/24 05:07:14;;;;;;;3.85;1.80;;;;;;;9.16;67.37;96135.48;1808731;79;21068;-82
2020/12/24 05:09:44;;;;;;;4.78;2.08;;;;;;;9.14;67.40;96142.21;1808903;79;21346;-82
2020/12/24 05:12:13;;;;;;;4.70;2.15;;;;;;;9.15;67.45;96133.35;1809167;79;21118;-82
2020/12/24 05:14:42;;;;;;;6.17;2.77;;;;;;;9.14;67.30;96134.82;1808992;79;21040;-81
2020/12/24 05:17:11;;;;;;;7.50;3.92;;;;;;;9.12;67.35;96133.64;1809143;79;21041;-81
2020/12/24 05:19:47;;;;;;;5.70;2.98;;;;;;;9.09;67.22;96133.46;1808878;79;21546;-82
2020/12/24 05:22:21;;;;;;;5.00;2.20;;;;;;;9.10;67.15;96132.97;1808622;79;21408;-81
2020/12/24 05:24:50;;;;;;;4.40;1.92;;;;;;;9.12;66.96;96134.95;1809124;79;21486;-84
2020/12/24 05:27:22;;;;;;;3.67;1.60;;;;;;;9.11;66.95;96129.36;1809387;79;21112;-82
2020/12/24 05:29:52;;;;;;;5.08;2.25;;;;;;;9.11;66.82;96125.42;1809147;79;21100;-82
2020/12/24 05:32:31;;;;;;;4.03;1.77;;;;;;;9.10;66.68;96118.53;1809387;79;21037;-81
2020/12/24 05:35:10;;;;;;;7.92;4.80;;;;;;;9.12;66.61;96106.55;1806050;77;21650;-83
2020/12/24 05:37:39;;;;;;;3.80;1.60;;;;;;;9.08;66.70;96105.55;1790469;80;21220;-82
2020/12/24 05:40:24;;;;;;;3.75;2.08;;;;;;;9.05;66.84;96110.27;1790390;80;21145;-81
2020/12/24 05:42:59;;;;;;;3.90;1.85;;;;;;;9.06;67.06;96105.35;1790374;78;21136;-83
2020/12/24 05:45:31;;;;;;;4.35;1.90;;;;;;;9.09;66.92;96101.13;1790323;80;21204;-82
2020/12/24 05:48:12;;;;;;;5.42;2.80;;;;;;;9.09;66.98;96090.13;1791351;80;21190;-82
2020/12/24 05:50:43;;;;;;;5.45;2.58;;;;;;;9.12;66.90;96107.38;1791196;80;21062;-84
2020/12/24 05:53:14;;;;;;;4.95;2.45;;;;;;;9.10;67.08;96100.97;1791303;80;21511;-84
2020/12/24 05:55:43;;;;;;;4.92;2.37;;;;;;;9.12;67.17;96096.86;1791322;80;21641;-83
2020/12/24 05:58:12;;;;;;;5.58;2.80;;;;;;;9.14;67.04;96106.75;1791000;78;21506;-82
2020/12/24 06:00:42;;;;;;;6.28;2.60;;;;;;;9.12;67.07;96100.80;1790861;78;21130;-82
2020/12/24 06:03:17;;;;;;;5.22;2.33;;;;;;;9.13;67.27;96098.54;1790750;80;21228;-83
2020/12/24 06:06:00;;;;;;;6.05;3.12;;;;;;;9.15;67.13;96090.50;1791110;78;21558;-82
2020/12/24 06:08:32;;;;;;;7.42;3.20;;;;;;;9.17;67.13;96102.49;1791432;78;21110;-82
2020/12/24 06:11:10;;;;;;;6.58;2.75;;;;;;;9.23;67.14;96096.63;1791656;80;21046;-83
2020/12/24 06:13:50;;;;;;;7.47;4.10;;;;;;;9.21;66.96;96088.09;1790675;80;23410;-82
2020/12/24 06:16:19;;;;;;;6.22;3.20;;;;;;;9.16;66.81;96082.46;1789031;80;21197;-82
2020/12/24 06:18:50;;;;;;;6.83;3.85;;;;;;;9.17;66.84;96087.22;1708635;82;21158;-82
2020/12/24 06:21:25;;;;;;;6.95;2.83;;;;;;;9.19;66.67;96074.30;1781898;79;21177;-81
2020/12/24 06:24:00;;;;;;;7.42;3.80;;;;;;;9.21;66.48;96068.87;1759381;81;21053;-80
2020/12/24 06:26:41;;;;;;;8.18;4.35;;;;;;;9.25;66.15;96074.14;1740693;81;21357;-80
2020/12/24 06:29:10;;;;;;;8.80;4.22;;;;;;;9.28;66.04;96069.91;1695546;83;21098;-80
2020/12/24 06:31:41;;;;;;;9.23;4.80;;;;;;;9.30;65.87;96075.33;1695597;84;21162;-83
2020/12/24 06:35:39;;;;;;;8.18;4.17;;;;;;;9.37;65.85;96072.94;1821382;77;23064;-84
2020/12/24 06:38:47;;;;;;;6.40;3.15;;;;;;;9.33;65.97;96080.78;1757908;81;21038;-83
2020/12/24 06:41:44;;;;;;;6.00;3.15;;;;;;;9.37;66.19;96065.06;1821139;77;22695;-81
2020/12/24 06:44:14;;;;;;;8.18;3.75;;;;;;;9.36;66.33;96071.27;1785016;80;21141;-83
2020/12/24 06:46:58;;;;;;;6.83;3.45;;;;;;;9.40;66.20;96066.54;1785069;80;21565;-80
2020/12/24 06:49:35;;;;;;;8.83;4.67;;;;;;;9.38;66.24;96061.45;1798902;79;21232;-85
2020/12/24 06:52:08;;;;;;;11.00;5.12;;;;;;;9.40;66.25;96059.97;1814643;79;21133;-82
2020/12/24 06:54:42;;;;;;;9.83;4.40;;;;;;;9.41;66.18;96062.93;1816623;79;21482;-83
2020/12/24 06:57:25;;;;;;;8.40;3.87;;;;;;;9.43;66.32;96049.98;1817160;79;21038;-84
2020/12/24 07:00:23;;;;;;;9.55;4.05;;;;;;;9.41;66.21;96045.36;1804701;79;21205;-83
2020/12/24 07:02:55;;;;;;;7.20;3.30;;;;;;;9.41;66.24;96045.85;1751098;80;21149;-83
2020/12/24 07:56:09;;;;;;;6.00;3.17;;;;;;;9.49;66.26;96024.41;1744128;78;22690;31
2020/12/24 18:50:25;;;;;;;12.07;6.12;;;;;;;10.01;69.38;95487.78;1665344;81;21279;-87
2020/12/24 19:13:17;;;;;;;9.60;5.75;;;;;;;10.07;69.08;95522.59;1661780;80;21279;-86
2020/12/24 19:17:10;;;;;;;8.50;4.42;;;;;;;10.07;68.99;95521.28;1602876;82;21186;31
2020/12/24 19:19:58;;;;;;;7.80;3.70;;;;;;;10.10;68.91;95518.81;1615264;84;21331;-84
2020/12/24 19:26:54;;;;;;;9.63;4.95;;;;;;;10.13;68.71;95529.80;1576011;84;21213;-86
2020/12/24 19:30:04;;;;;;;5.92;2.60;;;;;;;10.20;68.54;95537.84;1589247;88;21243;-85
2020/12/24 19:33:16;;;;;;;7.10;3.10;;;;;;;10.28;68.02;95554.11;1590022;88;21260;-88
2020/12/24 19:36:26;;;;;;;8.58;4.37;;;;;;;10.26;68.03;95558.70;1551630;91;21229;-86
2020/12/24 19:39:41;;;;;;;7.92;4.92;;;;;;;10.13;68.26;95555.28;1567639;90;21229;-86
2020/12/24 19:45:34;;;;;;;13.75;8.38;;;;;;;10.01;69.21;95557.47;1603565;84;21262;-87
2020/12/24 19:52:32;;;;;;;14.75;9.65;;;;;;;9.91;69.93;95564.76;1649229;84;21117;-88
2020/12/24 19:56:01;;;;;;;14.53;10.57;;;;;;;9.74;70.60;95567.92;1676452;81;21069;31
2020/12/24 19:59:12;;;;;;;;;;;;;;;9.64;71.10;95568.59;1727663;79;21093;-84
2020/12/24 20:02:24;;;;;;;15.85;11.12;;;;;;;9.48;71.83;95572.07;1707267;82;20271;-86
2020/12/24 20:05:34;;;;;;;18.70;11.85;;;;;;;9.34;72.44;95576.70;1689696;82;21088;-86
2020/12/24 20:13:12;;;;;;;17.27;12.30;;;;;;;9.29;73.28;95581.63;1666372;79;21305;31
2020/12/24 20:16:43;;;;;;;19.75;12.82;;;;;;;9.25;73.63;95577.68;1558957;84;22004;-86
2020/12/24 20:19:50;;;;;;;14.70;10.80;;;;;;;9.23;73.93;95576.54;1599418;81;21236;-87
2020/12/24 20:23:01;;;;;;;15.30;10.17;;;;;;;9.20;74.08;95576.88;1646418;81;21056;-85
2020/12/24 20:26:11;;;;;;;15.32;10.03;;;;;;;9.24;74.47;95586.55;1633186;84;21208;-85
2020/12/24 20:29:20;;;;;;;13.85;8.00;;;;;;;9.27;74.46;95593.63;1647319;85;21352;-85
2020/12/24 20:32:04;;;;;;;13.25;8.73;;;;;;;9.26;74.46;95588.05;1640668;86;21248;-86
2020/12/24 20:35:14;;;;;;;16.20;9.70;;;;;;;9.28;74.52;95590.00;1650445;86;21106;-85
2020/12/24 20:38:15;;;;;;;19.23;12.27;;;;;;;9.34;74.40;95592.47;1643948;86;21314;-86
2020/12/24 20:41:06;;;;;;;21.33;14.90;;;;;;;9.38;74.42;95590.34;1634615;86;21220;-85
2020/12/24 20:44:00;;;;;;;22.67;14.75;;;;;;;9.41;74.40;95584.23;1631974;86;21296;-86
2020/12/24 20:46:37;;;;;;;25.50;17.42;;;;;;;9.44;74.47;95592.30;1660607;79;21513;-87
2020/12/24 20:49:46;;;;;;;27.02;19.40;;;;;;;9.48;74.40;95585.70;1638589;86;21145;-86
2020/12/24 20:52:36;;;;;;;24.98;17.57;;;;;;;9.49;74.29;95590.00;1630934;86;21101;-86
2020/12/24 20:55:07;;;;;;;25.57;18.60;;;;;;;9.49;74.32;95582.94;1638777;86;21085;-87
2020/12/24 20:57:39;;;;;;;22.50;17.12;;;;;;;9.47;74.15;95569.62;1639848;86;21209;-86
2020/12/24 21:06:05;;;;;;;24.23;17.87;;;;;;;9.26;74.91;95554.39;1699390;79;21188;-85
2020/12/24 22:01:27;;;;;;;58.80;33.58;;;;;;;8.26;78.35;95551.81;1711450;78;21239;31
2020/12/24 22:04:17;;;;;;;60.48;34.92;;;;;;;8.26;78.48;95557.06;1696496;83;21108;-86
2020/12/24 22:10:44;;;;;;;57.90;33.08;;;;;;;8.20;78.44;95555.56;1726860;78;21262;-86
2020/12/24 22:13:15;;;;;;;59.43;34.70;;;;;;;8.17;78.70;95561.94;1745753;80;21624;-86
2020/12/24 22:15:49;;;;;;;72.25;38.85;;;;;;;8.17;78.72;95555.38;1732638;78;21262;-85
2020/12/24 22:18:59;;;;;;;81.02;39.70;;;;;;;8.20;79.10;95549.83;1699481;81;21693;-87
2020/12/24 22:21:30;;;;;;;75.10;42.48;;;;;;;8.28;79.11;95557.71;1727850;81;21077;-88
2020/12/24 22:27:55;;;;;;;68.07;37.03;;;;;;;8.33;78.62;95559.86;1684207;78;21544;-87
2020/12/24 22:30:28;;;;;;;68.25;38.42;;;;;;;8.35;78.71;95566.25;1650233;83;21098;-86
2020/12/24 22:33:25;;;;;;;58.50;33.40;;;;;;;8.37;78.63;95569.09;1663973;83;21292;-85
2020/12/24 22:36:01;;;;;;;52.73;29.30;;;;;;;8.45;78.27;95567.78;1661372;83;21160;-86
2020/12/24 22:38:30;;;;;;;37.65;24.82;;;;;;;8.53;77.92;95563.04;1671624;83;21218;-86
2020/12/24 22:41:02;;;;;;;42.85;27.22;;;;;;;8.60;77.34;95568.00;1660996;84;21129;-87
2020/12/24 22:43:32;;;;;;;41.20;25.05;;;;;;;8.62;76.84;95563.39;1668657;83;21292;-87
2020/12/24 22:46:03;;;;;;;36.00;25.08;;;;;;;8.65;76.64;95568.30;1656501;83;21281;-85
2020/12/24 22:48:52;;;;;;;32.67;22.05;;;;;;;8.65;76.36;95575.36;1683835;83;21283;-87
2020/12/24 22:51:47;;;;;;;34.45;22.70;;;;;;;8.56;76.54;95577.98;1678058;83;21188;-85
2020/12/24 22:54:20;;;;;;;28.67;18.40;;;;;;;8.53;76.70;95572.22;1672762;83;21108;-85
2020/12/24 22:57:12;;;;;;;30.08;20.68;;;;;;;8.53;76.74;95571.73;1650390;83;21129;-84
2020/12/24 22:59:54;;;;;;;31.05;20.62;;;;;;;8.53;76.68;95586.16;1688773;83;21205;-85
2020/12/24 23:02:29;;;;;;;29.55;19.45;;;;;;;8.59;76.72;95590.44;1682198;83;21058;-85
2020/12/24 23:05:41;;;;;;;40.52;26.42;;;;;;;8.63;76.62;95583.89;1661885;84;21233;-86
2020/12/24 23:08:11;;;;;;;36.10;24.20;;;;;;;8.66;76.48;95575.22;1668598;83;21121;-86
2020/12/24 23:10:45;;;;;;;35.78;24.45;;;;;;;8.71;76.53;95576.84;1675678;80;21259;-86
2020/12/24 23:13:56;;;;;;;26.07;17.10;;;;;;;8.75;76.43;95566.36;1711324;80;21215;-86
2020/12/24 23:16:25;;;;;;;30.17;19.62;;;;;;;8.78;76.12;95554.73;1744668;80;21125;-87
2020/12/24 23:18:54;;;;;;;27.37;18.23;;;;;;;8.72;76.21;95558.01;1717649;80;21377;-86
2020/12/24 23:21:27;;;;;;;32.42;22.42;;;;;;;8.71;76.12;95556.34;1721424;80;21059;-85
2020/12/24 23:24:37;;;;;;;34.15;23.10;;;;;;;8.67;76.28;95550.61;1734001;80;21291;-87
2020/12/24 23:27:09;;;;;;;36.25;22.10;;;;;;;8.64;76.72;95546.98;1727392;80;21199;-86
2020/12/24 23:30:01;;;;;;;37.65;21.55;;;;;;;8.68;76.91;95552.25;1730926;81;21136;-84
2020/12/24 23:33:16;;;;;;;32.75;21.75;;;;;;;8.70;76.93;95552.89;1747018;78;21156;-86
2020/12/24 23:36:10;;;;;;;32.15;20.77;;;;;;;8.70;76.96;95559.95;1771241;80;21275;-87
2020/12/24 23:38:45;;;;;;;28.73;19.37;;;;;;;8.67;76.92;95561.61;1778697;80;21076;-85
2020/12/24 23:41:16;;;;;;;35.45;22.85;;;;;;;8.62;77.03;95563.89;1784232;80;22486;-86
2020/12/24 23:43:49;;;;;;;37.75;25.17;;;;;;;8.62;77.40;95562.09;1765914;80;21172;-86
2020/12/24 23:46:22;;;;;;;44.30;27.93;;;;;;;8.65;77.41;95556.98;1758552;80;21235;-84
2020/12/24 23:52:03;;;;;;;36.38;22.52;;;;;;;8.66;77.27;95551.60;1701739;82;21110;-86
2020/12/24 23:54:34;;;;;;;26.97;18.02;;;;;;;8.67;77.20;95551.92;1699448;82;21188;-87
2020/12/24 23:57:15;;;;;;;31.97;19.70;;;;;;;8.68;77.18;95544.88;1675849;81;21165;-87
